createdAt,value
2023-03-23T16:00:20.703Z,94789.53
2023-03-23T16:02:50.389Z,94785.28
2023-03-23T16:05:18.590Z,94780.56
2023-03-23T16:07:46.528Z,94775.81
2023-03-23T16:10:18.405Z,94768.47
2023-03-23T16:12:46.855Z,94770.31
2023-03-23T16:15:17.213Z,94763.72
2023-03-23T16:17:46.676Z,94751.09
2023-03-23T16:20:16.258Z,94740.56
2023-03-23T16:22:44.437Z,94748.72
2023-03-23T16:25:13.454Z,94744.25
2023-03-23T16:27:42.393Z,94739.00
2023-03-23T16:30:19.712Z,94739.50
2023-03-23T16:32:47.956Z,94738.72
2023-03-23T16:35:17.311Z,94733.72
2023-03-23T16:37:49.756Z,94735.81
2023-03-23T16:40:18.895Z,94722.41
2023-03-23T16:42:47.173Z,94727.94
2023-03-23T16:45:17.821Z,94714.78
2023-03-23T16:47:45.843Z,94708.47
2023-03-23T16:50:16.255Z,94714.78
2023-03-23T16:52:47.503Z,94717.94
2023-03-23T16:55:17.714Z,94713.47
2023-03-23T16:57:45.658Z,94717.13
2023-03-23T17:00:20.279Z,94711.06
2023-03-23T17:02:50.515Z,94713.97
2023-03-23T17:05:19.770Z,94717.41
2023-03-23T17:07:48.638Z,94714.25
2023-03-23T17:10:17.544Z,94709.00
2023-03-23T17:12:45.807Z,94704.78
2023-03-23T17:15:13.948Z,94719.25
2023-03-23T17:17:43.410Z,94714.25
2023-03-23T17:20:12.581Z,94712.91
2023-03-23T17:22:42.020Z,94716.34
2023-03-23T17:25:11.123Z,94704.25
2023-03-23T17:27:40.619Z,94704.75
2023-03-23T17:30:10.922Z,94706.84
2023-03-23T17:32:39.354Z,94705.00
2023-03-23T17:35:09.229Z,94702.13
2023-03-23T17:37:37.935Z,94698.97
2023-03-23T17:40:10.165Z,94714.25
2023-03-23T17:42:38.583Z,94710.56
2023-03-23T17:45:08.453Z,94718.72
2023-03-23T17:47:36.546Z,94718.47
2023-03-23T17:50:12.245Z,94730.56
2023-03-23T17:52:43.361Z,94738.41
2023-03-23T17:55:11.775Z,94744.16
2023-03-23T17:57:40.041Z,94743.59
2023-03-23T18:00:09.377Z,94746.78
2023-03-23T18:02:38.084Z,94747.31
2023-03-23T18:05:09.260Z,94748.94
2023-03-23T18:07:37.506Z,94748.41
2023-03-23T18:10:11.865Z,94735.78
2023-03-23T18:12:40.444Z,94730.53
2023-03-23T18:15:09.187Z,94728.94
2023-03-23T18:17:37.573Z,94730.53
2023-03-23T18:20:07.447Z,94727.38
2023-03-23T18:22:35.538Z,94728.94
2023-03-23T18:25:05.177Z,94731.56
2023-03-23T18:27:35.089Z,94743.66
2023-03-23T18:30:03.795Z,94738.41
2023-03-23T18:32:31.786Z,94743.16
2023-03-23T18:34:59.719Z,94729.47
2023-03-23T18:37:27.769Z,94736.31
2023-03-23T18:39:56.293Z,94736.84
2023-03-23T18:42:24.323Z,94729.47
2023-03-23T18:44:54.936Z,94725.22
2023-03-23T18:47:23.062Z,94737.84
2023-03-23T18:49:51.978Z,94734.16
2023-03-23T18:52:20.008Z,94725.50
2023-03-23T18:54:47.907Z,94735.22
2023-03-23T18:57:18.079Z,94741.53
2023-03-23T18:59:46.089Z,94749.38
2023-03-23T19:02:18.330Z,94748.06
2023-03-23T19:04:46.824Z,94745.16
2023-03-23T19:07:16.427Z,94739.09
2023-03-23T19:09:46.151Z,94736.72
2023-03-23T19:12:15.676Z,94734.63
2023-03-23T19:14:43.996Z,94731.69
2023-03-23T19:17:12.250Z,94729.84
2023-03-23T19:19:43.188Z,94731.94
2023-03-23T19:22:13.071Z,94733.00
2023-03-23T19:24:40.959Z,94730.38
2023-03-23T19:27:09.416Z,94715.66
2023-03-23T19:29:37.391Z,94717.75
2023-03-23T19:32:05.662Z,94713.03
2023-03-23T19:34:33.760Z,94716.19
2023-03-23T19:37:06.009Z,94707.25
2023-03-23T19:39:38.542Z,94703.06
2023-03-23T19:42:07.201Z,94711.19
2023-03-23T19:44:35.664Z,94711.97
2023-03-23T19:47:03.765Z,94705.56
2023-03-23T19:49:31.762Z,94706.81
2023-03-23T19:52:07.131Z,94705.00
2023-03-23T19:54:40.909Z,94701.91
2023-03-23T19:57:10.090Z,94701.09
2023-03-23T19:59:38.631Z,94687.16
2023-03-23T20:02:08.206Z,94691.88
2023-03-23T20:04:36.587Z,94696.13
2023-03-23T20:07:07.431Z,94700.78
2023-03-23T20:09:35.897Z,94708.66
2023-03-23T20:12:06.318Z,94706.53
2023-03-23T20:14:34.828Z,94706.16
2023-03-23T20:17:03.737Z,94719.50
2023-03-23T20:22:01.790Z,94722.06
2023-03-23T20:24:29.819Z,94723.38
2023-03-23T20:26:57.964Z,94728.63
2023-03-23T20:29:31.349Z,94728.28
2023-03-23T20:31:59.586Z,94736.03
2023-03-23T20:34:31.201Z,94738.13
2023-03-23T20:37:00.320Z,94760.66
2023-03-23T20:39:30.835Z,94768.00
2023-03-23T20:42:01.973Z,94777.31
2023-03-23T20:44:35.039Z,94784.16
2023-03-23T20:47:03.898Z,94791.56
2023-03-23T20:49:32.045Z,94792.72
2023-03-23T20:52:00.098Z,94809.06
2023-03-23T20:54:28.442Z,94809.13
2023-03-23T20:56:58.514Z,94809.66
2023-03-23T20:59:27.225Z,94818.06
2023-03-23T21:01:56.533Z,94828.34
2023-03-23T21:04:27.351Z,94822.53
2023-03-23T21:06:56.874Z,94835.97
2023-03-23T21:09:25.884Z,94829.84
2023-03-23T21:11:54.250Z,94810.44
2023-03-23T21:14:22.153Z,94807.59
2023-03-23T21:16:50.316Z,94791.88
2023-03-23T21:19:20.753Z,94793.00
2023-03-23T21:21:56.772Z,94781.19
2023-03-23T21:24:28.154Z,94770.91
2023-03-23T21:26:57.207Z,94765.88
2023-03-23T21:29:25.284Z,94765.59
2023-03-23T21:32:07.030Z,94782.81
2023-03-23T21:34:38.804Z,94783.13
2023-03-23T21:37:06.924Z,94752.28
2023-03-23T21:39:34.935Z,94777.66
2023-03-23T21:42:06.859Z,94788.38
2023-03-23T21:44:35.903Z,94793.66
2023-03-23T21:47:04.753Z,94789.09
2023-03-23T21:49:32.770Z,94790.19
2023-03-23T21:52:02.500Z,94780.19
2023-03-23T21:54:31.988Z,94786.13
2023-03-23T21:57:00.436Z,94781.28
2023-03-23T21:59:29.024Z,94786.22
2023-03-23T22:01:58.503Z,94760.50
2023-03-23T22:04:28.145Z,94720.19
2023-03-23T22:06:56.848Z,94717.13
2023-03-23T22:09:26.339Z,94740.78
2023-03-23T22:11:54.494Z,94747.16
2023-03-23T22:14:22.607Z,94738.03
2023-03-23T22:16:50.706Z,94731.28
2023-03-23T22:19:18.728Z,94742.41
2023-03-23T22:21:46.923Z,94757.66
2023-03-23T22:24:15.118Z,94743.38
2023-03-23T22:26:44.485Z,94730.31
2023-03-23T22:29:12.928Z,94731.44
2023-03-23T22:31:41.501Z,94723.41
2023-03-23T22:34:10.031Z,94761.53
2023-03-23T22:36:38.869Z,94761.44
2023-03-23T22:39:08.282Z,94765.09
2023-03-23T22:41:38.294Z,94759.66
2023-03-23T22:44:12.671Z,94762.66
2023-03-23T22:46:40.769Z,94731.81
2023-03-23T22:49:09.104Z,94750.09
2023-03-23T22:51:38.011Z,94742.88
2023-03-23T22:54:07.176Z,94745.16
2023-03-23T22:56:37.185Z,94730.81
2023-03-23T22:59:05.474Z,94729.75
2023-03-23T23:01:35.747Z,94732.41
2023-03-23T23:04:04.545Z,94763.28
2023-03-23T23:06:32.541Z,94757.78
2023-03-23T23:09:00.565Z,94757.88
2023-03-23T23:11:28.635Z,94798.19
2023-03-23T23:13:56.684Z,94783.16
2023-03-23T23:16:26.409Z,94768.25
2023-03-23T23:18:56.203Z,94779.28
2023-03-23T23:21:26.739Z,94777.91
2023-03-23T23:23:55.033Z,94757.56
2023-03-23T23:26:23.763Z,94749.16
2023-03-23T23:28:51.962Z,94721.44
2023-03-23T23:31:26.156Z,94689.97
2023-03-23T23:33:57.562Z,94702.94
2023-03-23T23:36:29.947Z,94701.13
2023-03-23T23:39:00.597Z,94711.63
2023-03-23T23:41:30.419Z,94719.81
2023-03-23T23:43:59.514Z,94730.09
2023-03-23T23:46:28.744Z,94748.66
2023-03-23T23:48:58.484Z,94700.75
2023-03-23T23:51:27.322Z,94689.63
2023-03-23T23:53:58.954Z,94666.13
2023-03-23T23:56:27.843Z,94665.16
2023-03-23T23:58:56.103Z,94668.13
